• Join FlightAware (Why Join?)
  • Login
  • US Flag 
03:47PM EDT


 

Airport Tracker/Info


-or-


 

Live Flight TrackerFlight Track Log ✈ ASQ4209 ✈ 21-Jul-2013 ✈ KBTR - KIAH

Flight Track Log - Related Links

Times and Time Zones

All times are in EDT time to prevent confusion due to time zone crossing. See the ASQ4209 flight status page for this flight to view local times or setup timezone preferences in your user account.

Time Position Orientation Groundspeed Altitude Reporting Facility
EDT Latitude Longitude Course Direction KTS MPH feet Rate Location/Type
02:34PM 30.4831 -91.2594 263° West 198 228 5,500  Level Houston Center
02:35PM 30.4872 -91.4100 259° West  Level FlightAware Approximate
02:35PM 30.4569 -91.3367 249° West 217 250 8,400  Level Houston Center
02:36PM 30.4726 -91.5038 257° West  Level FlightAware Approximate
02:37PM 30.4540 -91.5969 257° West  Level FlightAware Approximate
02:37PM 30.3978 -91.4850 245° Southwest 285 328 11,000  Level Houston Center
02:38PM 30.4250 -91.6937 227° Southwest  Level FlightAware Approximate
02:38PM 30.3583 -91.5839 245° Southwest 335 386 11,500  Level Houston Center
02:39PM 30.3144 -91.6919 245° Southwest 366 421 12,300 900 Climbing Houston Center
02:40PM 30.2628 -91.8219 245° Southwest 380 437 13,400 1,140 Climbing Houston Center
02:41PM 30.2172 -91.9333 245° Southwest 382 440 14,700 960 Climbing Houston Center
02:42PM 30.1678 -92.0367 241° Southwest 379 436 15,500 780 Climbing Houston Center
02:43PM 30.0997 -92.1383 232° Southwest 394 453 16,400 840 Climbing Houston Center
02:44PM 30.0386 -92.2428 236° Southwest 396 456 17,300 720 Climbing Houston Center
02:45PM 30.0117 -92.3653 256° West 395 455 17,900 300 Climbing Houston Center
02:46PM 29.9750 -92.5169 254° West 403 464 18,000 -300 Climbing Houston Center
02:47PM 29.9458 -92.6433 255° West 406 467 17,400 -540 Descending Houston Center
02:48PM 29.9150 -92.7703 254° West 410 472 17,000 -240 Descending Houston Center
02:49PM 29.8864 -92.8961 255° West 407 468 17,000  Level Houston Center
02:50PM 29.8569 -93.0167 254° West 393 452 17,000  Level Houston Center
02:51PM 29.8189 -93.1303 249° West 384 442 17,000  Level Houston Center
02:52PM 29.7900 -93.2503 255° West 387 445 17,000  Level Houston Center
02:53PM 29.7542 -93.4003 255° West 400 460 17,100  Climbing Houston Center
02:55PM 29.7258 -93.5256 255° West 406 467 17,000 -60 Descending Houston Center
02:56PM 29.6953 -93.6522 255° West 408 470 17,000  Level Houston Center
02:57PM 29.6675 -93.7786 256° West 408 470 17,000  Level Houston Center
02:57PM 29.6411 -93.8836 254° West 410 472 17,000  Level Houston Center
02:59PM 29.6069 -94.0328 255° West 413 475 17,000 -660 Level Houston Center
03:00PM 29.5742 -94.1733 255° West 412 474 15,500 -1,800 Descending Houston Center
03:01PM 29.5467 -94.2875 255° West 383 441 13,400 -1,260 Descending Houston Center
03:02PM 29.5536 -94.3917 274° West 342 394 13,000 -720 Descending Houston Center
03:03PM 29.5967 -94.4836 298° West 328 377 12,000 -1,020 Descending Houston Center
03:04PM 29.6375 -94.5781 296° West 331 381 11,000 -1,500 Descending Houston Center
03:05PM 29.6783 -94.6753 296° West 291 335 8,900 -1,740 Descending Houston Center
03:06PM 29.7497 -94.7111 336° Northwest 287 330 7,500 -1,320 Descending Houston Center
03:07PM 29.8181 -94.7492 334° Northwest 277 319 6,200 -1,260 Descending Houston Center
03:08PM 29.8703 -94.8047 317° Northwest 263 303 4,900 -1,140 Descending Houston Center
03:09PM 29.9192 -94.8539 319° Northwest 243 280 3,900 -1,020 Descending Houston Center
03:10PM 29.9694 -94.9083 317° Northwest 218 251 3,000 -420 Descending Houston Center
03:11PM 29.9781 -94.9658 280° West 172 198 3,100 -480 Climbing Houston Center
03:12PM 29.9781 -95.0208 270° West 162 186 2,100 -540 Descending Houston Center
03:13PM 29.9794 -95.0733 272° West 168 193 2,100  Level Houston Center
03:14PM 29.9778 -95.1317 268° West 162 186 2,100  Level Houston Center